Time;durP1;ratioP1;P1;durP2;ratioP2;P2;SDS_P1;SDS_P2;PMS_P1;PMS_P2;Temp;Humidity;BMP_temperature;BMP_pressure;BME280_temperature;BME280_humidity;BME280_pressure;Samples;Min_cycle;Max_cycle;Signal;HPM_P1;HPM_P2
2022/10/22 00:00:35;;;;;;;22.47;12.97;;;12.70;99.90;;;;;;5109057;28;20820;-75
2022/10/22 00:03:00;;;;;;;23.50;13.15;;;12.60;99.90;;;;;;5109670;28;20484;-75
2022/10/22 00:05:26;;;;;;;22.37;13.20;;;12.60;99.90;;;;;;5107334;28;20762;-76
2022/10/22 00:07:52;;;;;;;22.88;13.40;;;12.50;99.90;;;;;;5109000;28;20445;-75
2022/10/22 00:10:18;;;;;;;27.07;13.57;;;12.50;99.90;;;;;;5094181;28;20490;-75
2022/10/22 00:12:44;;;;;;;27.63;14.38;;;12.50;99.90;;;;;;5105511;28;20516;-75
2022/10/22 00:15:10;;;;;;;26.92;13.82;;;12.50;99.90;;;;;;5096230;28;20813;-75
2022/10/22 00:17:36;;;;;;;24.52;13.40;;;12.50;99.90;;;;;;5108606;28;21045;-75
2022/10/22 00:20:02;;;;;;;22.70;11.90;;;12.50;99.90;;;;;;5110002;27;20407;-75
2022/10/22 00:22:28;;;;;;;21.10;12.33;;;12.50;99.90;;;;;;5107621;28;20548;-75
2022/10/22 00:24:54;;;;;;;28.40;13.20;;;12.40;99.90;;;;;;5107744;28;20483;-75
2022/10/22 00:27:19;;;;;;;21.37;11.70;;;12.40;99.90;;;;;;5108125;28;21774;-75
2022/10/22 00:29:45;;;;;;;23.48;12.93;;;12.40;99.90;;;;;;5108679;28;20397;-75
2022/10/22 00:32:10;;;;;;;22.53;12.23;;;12.30;99.90;;;;;;5108993;28;20401;-75
2022/10/22 00:34:36;;;;;;;25.05;13.43;;;12.30;99.90;;;;;;5108061;28;20767;-75
2022/10/22 00:37:01;;;;;;;22.33;12.90;;;12.30;99.90;;;;;;5108594;28;20408;-75
2022/10/22 00:39:27;;;;;;;24.58;13.43;;;12.30;99.90;;;;;;5107483;28;20791;-75
2022/10/22 00:41:55;;;;;;;23.27;13.00;;;12.30;99.90;;;;;;5109155;28;20424;-76
2022/10/22 00:44:58;;;;;;;23.58;13.00;;;12.30;99.90;;;;;;5112619;28;20419;-75
2022/10/22 00:47:27;;;;;;;20.80;12.70;;;12.30;99.90;;;;;;5097910;28;20421;-75
2022/10/22 00:49:54;;;;;;;18.67;11.63;;;12.30;99.90;;;;;;5108529;28;20944;-75
2022/10/22 00:52:20;;;;;;;23.15;12.82;;;12.30;99.90;;;;;;5107030;28;20956;-75
2022/10/22 00:54:46;;;;;;;21.95;12.32;;;12.30;99.90;;;;;;5108553;28;20988;-75
2022/10/22 00:57:12;;;;;;;23.77;12.57;;;12.30;99.90;;;;;;5110991;28;20485;-75
2022/10/22 00:59:38;;;;;;;20.45;12.35;;;12.30;99.90;;;;;;5109872;27;20532;-75
2022/10/22 01:02:04;;;;;;;24.10;12.27;;;12.20;99.90;;;;;;5106885;28;20453;-75
2022/10/22 01:04:29;;;;;;;21.80;12.02;;;12.30;99.90;;;;;;5090293;28;20396;-75
2022/10/22 01:06:55;;;;;;;19.83;11.77;;;12.20;99.90;;;;;;5106695;28;20408;-75
2022/10/22 01:09:41;;;;;;;23.42;12.02;;;12.20;99.90;;;;;;5106775;28;20408;-75
2022/10/22 01:12:29;;;;;;;22.88;12.35;;;12.20;99.90;;;;;;5108210;28;20404;-75
2022/10/22 01:15:17;;;;;;;21.13;12.32;;;12.20;99.90;;;;;;5106973;28;20981;-75
2022/10/22 01:18:06;;;;;;;23.60;12.45;;;12.20;99.90;;;;;;5108174;28;20439;-75
2022/10/22 01:21:01;;;;;;;21.25;12.20;;;12.20;99.90;;;;;;5103956;28;20424;-75
2022/10/22 01:24:08;;;;;;;22.85;11.95;;;12.20;99.90;;;;;;5107856;28;20404;-75
2022/10/22 01:26:53;;;;;;;19.77;11.40;;;12.20;99.90;;;;;;5100485;28;20823;-75
2022/10/22 01:29:26;;;;;;;20.88;11.35;;;12.20;99.90;;;;;;5107594;28;20396;-75
2022/10/22 01:32:02;;;;;;;18.90;11.23;;;12.20;99.90;;;;;;5116114;27;20465;-75
2022/10/22 01:34:30;;;;;;;19.13;10.63;;;12.20;99.90;;;;;;5111592;28;20950;-75
2022/10/22 01:36:58;;;;;;;18.42;10.93;;;12.20;99.90;;;;;;5109819;28;20459;-75
2022/10/22 01:39:28;;;;;;;18.08;10.15;;;12.10;99.90;;;;;;5110548;28;20412;-75
2022/10/22 01:41:54;;;;;;;19.92;10.82;;;12.20;99.90;;;;;;5110204;28;20427;-75
2022/10/22 01:44:26;;;;;;;22.67;11.18;;;12.10;99.90;;;;;;5109333;28;20901;-75
2022/10/22 01:47:15;;;;;;;20.65;11.05;;;12.10;99.90;;;;;;5111501;28;20427;-75
2022/10/22 01:50:02;;;;;;;21.08;10.65;;;12.10;99.90;;;;;;5106934;28;20412;-75
2022/10/22 01:52:36;;;;;;;17.55;10.57;;;12.10;99.90;;;;;;5111038;28;20485;-75
2022/10/22 01:55:10;;;;;;;19.60;10.25;;;12.10;99.90;;;;;;5126934;27;20910;-75
2022/10/22 01:57:51;;;;;;;18.98;11.15;;;12.10;99.90;;;;;;5105472;28;20793;-75
2022/10/22 02:00:18;;;;;;;20.70;10.50;;;12.10;99.90;;;;;;5093400;28;20898;-75
2022/10/22 02:02:43;;;;;;;19.85;10.13;;;12.00;99.90;;;;;;5110126;28;20412;-75
2022/10/22 02:05:35;;;;;;;21.77;9.77;;;12.00;99.90;;;;;;5093092;28;20868;-75
2022/10/22 02:08:08;;;;;;;19.02;9.68;;;12.00;99.90;;;;;;5111198;28;20404;-75
2022/10/22 02:10:38;;;;;;;19.08;10.15;;;12.00;99.90;;;;;;5110633;28;20407;-75
2022/10/22 02:13:08;;;;;;;17.67;9.50;;;12.00;99.90;;;;;;5110113;28;20404;-75
2022/10/22 02:15:37;;;;;;;17.60;10.10;;;11.90;99.90;;;;;;5109788;28;20758;-75
2022/10/22 02:18:05;;;;;;;17.23;9.43;;;12.00;99.90;;;;;;5111423;28;20396;-75
2022/10/22 02:20:34;;;;;;;18.80;9.80;;;12.00;99.90;;;;;;5109494;28;20405;-75
2022/10/22 02:23:00;;;;;;;17.63;9.25;;;11.90;99.90;;;;;;5110878;28;20392;-75
2022/10/22 02:25:34;;;;;;;22.67;10.02;;;12.00;99.90;;;;;;5110852;28;20432;-75
2022/10/22 02:28:28;;;;;;;18.37;9.77;;;11.90;99.90;;;;;;5117891;27;20976;-75
2022/10/22 02:30:59;;;;;;;21.88;8.73;;;11.90;99.90;;;;;;5110872;27;20567;-75
2022/10/22 02:33:30;;;;;;;21.08;9.20;;;11.90;99.90;;;;;;5095285;28;20411;-75
2022/10/22 02:35:57;;;;;;;15.70;8.75;;;11.90;99.90;;;;;;5109050;28;20405;-75
2022/10/22 02:38:24;;;;;;;16.90;8.55;;;11.90;99.90;;;;;;5110556;28;20408;-75
2022/10/22 02:40:50;;;;;;;15.93;8.80;;;11.90;99.90;;;;;;5110084;28;20812;-75
2022/10/22 02:43:17;;;;;;;16.70;8.87;;;11.90;99.90;;;;;;5108908;28;20412;-75
2022/10/22 02:45:43;;;;;;;15.13;8.75;;;11.80;99.90;;;;;;5109426;28;20885;-75
2022/10/22 02:48:08;;;;;;;16.83;9.40;;;11.90;99.90;;;;;;5108414;28;20411;-75
2022/10/22 02:50:34;;;;;;;17.33;9.27;;;11.90;99.90;;;;;;5108549;28;20957;-75
2022/10/22 02:53:00;;;;;;;16.00;9.27;;;11.90;99.90;;;;;;5109367;28;20408;-75
2022/10/22 02:55:25;;;;;;;17.42;9.05;;;12.00;99.90;;;;;;5109123;28;20416;-75
2022/10/22 02:57:51;;;;;;;20.00;9.90;;;12.00;99.90;;;;;;5108780;28;20405;-75
2022/10/22 03:00:17;;;;;;;18.40;9.02;;;12.00;99.90;;;;;;5108548;28;20392;-75
2022/10/22 03:02:43;;;;;;;18.15;9.07;;;12.00;99.90;;;;;;5107827;28;20503;-75
2022/10/22 03:05:09;;;;;;;17.43;8.60;;;12.00;99.90;;;;;;5107730;28;20458;-75
2022/10/22 03:07:34;;;;;;;17.92;8.70;;;12.00;99.90;;;;;;5108110;28;20404;-75
2022/10/22 03:10:00;;;;;;;22.23;9.27;;;12.00;99.90;;;;;;5104694;28;20398;-75
2022/10/22 03:12:25;;;;;;;18.60;8.50;;;12.00;99.90;;;;;;5107326;27;20481;-75
2022/10/22 03:14:51;;;;;;;17.07;8.63;;;11.90;99.90;;;;;;5110905;27;20401;-75
2022/10/22 03:17:17;;;;;;;16.45;8.50;;;11.90;99.90;;;;;;5107376;28;20898;-75
2022/10/22 03:19:43;;;;;;;18.80;8.73;;;12.00;99.90;;;;;;5107115;28;20476;-75
2022/10/22 03:22:13;;;;;;;17.02;9.18;;;12.00;99.90;;;;;;5107042;28;20429;-75
2022/10/22 03:24:43;;;;;;;17.27;9.35;;;12.00;99.90;;;;;;5108877;28;20400;-75
2022/10/22 03:27:11;;;;;;;19.75;9.15;;;11.90;99.90;;;;;;5109002;28;21007;-75
2022/10/22 03:29:39;;;;;;;20.05;9.38;;;12.00;99.90;;;;;;5107294;28;20449;-75
2022/10/22 03:32:04;;;;;;;18.63;9.45;;;11.90;99.90;;;;;;5107813;28;20507;-75
2022/10/22 03:34:30;;;;;;;20.75;9.80;;;11.90;99.90;;;;;;5083093;28;20416;-75
2022/10/22 03:36:59;;;;;;;24.07;9.83;;;11.90;99.90;;;;;;5108414;28;20453;-75
2022/10/22 03:39:25;;;;;;;17.90;9.73;;;11.90;99.90;;;;;;5108420;28;20510;-75
2022/10/22 03:41:52;;;;;;;19.85;10.60;;;11.90;99.90;;;;;;5108499;28;20924;-75
2022/10/22 03:44:18;;;;;;;19.70;9.47;;;11.90;99.90;;;;;;5108663;28;20397;-75
2022/10/22 03:46:44;;;;;;;20.15;9.50;;;11.80;99.90;;;;;;5108181;28;20410;-75
2022/10/22 03:49:10;;;;;;;21.73;10.73;;;11.80;99.90;;;;;;5108198;28;20897;-75
2022/10/22 03:51:35;;;;;;;21.73;10.65;;;11.80;99.90;;;;;;5108627;28;20397;-75
2022/10/22 03:54:02;;;;;;;21.00;10.60;;;11.80;99.90;;;;;;5090980;28;20513;-75
2022/10/22 03:56:27;;;;;;;22.05;10.80;;;11.80;99.90;;;;;;5107196;28;20412;-75
2022/10/22 03:58:56;;;;;;;20.90;11.43;;;11.80;99.90;;;;;;5109195;28;20777;-75
2022/10/22 04:01:22;;;;;;;20.73;10.70;;;11.80;99.90;;;;;;5108449;28;20428;-75
2022/10/22 04:03:48;;;;;;;22.63;12.25;;;11.80;99.90;;;;;;5109454;28;20910;-75
2022/10/22 04:06:14;;;;;;;25.53;13.00;;;11.80;99.90;;;;;;5108412;28;20487;-75
2022/10/22 04:08:42;;;;;;;26.75;13.18;;;11.90;99.90;;;;;;5115116;27;20396;-75
2022/10/22 04:11:08;;;;;;;23.05;12.38;;;11.90;99.90;;;;;;5108859;28;20408;-75
2022/10/22 04:13:34;;;;;;;23.85;12.98;;;12.00;99.90;;;;;;5107205;28;20403;-75
2022/10/22 04:16:10;;;;;;;23.35;12.60;;;12.00;99.90;;;;;;5107187;28;20445;-75
2022/10/22 04:18:37;;;;;;;24.38;12.20;;;12.00;99.90;;;;;;5107218;28;20422;-75
2022/10/22 04:21:03;;;;;;;25.10;12.23;;;11.90;99.90;;;;;;5108572;28;20408;-75
2022/10/22 04:23:29;;;;;;;20.73;11.90;;;11.90;99.90;;;;;;5107533;28;20450;-75
2022/10/22 04:25:58;;;;;;;23.58;12.40;;;11.90;99.90;;;;;;5108578;28;20428;-75
2022/10/22 04:28:24;;;;;;;23.23;11.65;;;11.90;99.90;;;;;;5108631;28;20415;-75
2022/10/22 04:30:50;;;;;;;26.50;12.93;;;11.80;99.90;;;;;;5090502;28;20440;-75
2022/10/22 04:33:16;;;;;;;21.80;11.93;;;11.80;99.90;;;;;;5084374;28;20427;-75
2022/10/22 04:35:41;;;;;;;22.50;12.37;;;11.80;99.90;;;;;;5108446;28;20428;-75
2022/10/22 04:38:07;;;;;;;27.38;13.10;;;11.80;99.90;;;;;;5109052;28;20405;-75
2022/10/22 04:40:32;;;;;;;28.13;12.60;;;11.80;99.90;;;;;;5090062;28;20407;-75
2022/10/22 04:42:58;;;;;;;24.80;12.07;;;11.70;99.90;;;;;;5108647;28;20392;-75
2022/10/22 04:45:24;;;;;;;21.57;12.10;;;11.70;99.90;;;;;;5108325;28;20453;-75
2022/10/22 04:47:49;;;;;;;23.77;12.48;;;11.70;99.90;;;;;;5108127;28;20476;-75
2022/10/22 04:50:15;;;;;;;24.23;12.37;;;11.70;99.90;;;;;;5108590;28;20400;-74
2022/10/22 04:52:40;;;;;;;25.10;13.20;;;11.60;99.90;;;;;;5107386;28;20407;-75
2022/10/22 04:55:06;;;;;;;27.07;13.47;;;11.60;99.90;;;;;;5090147;28;20396;-75
2022/10/22 04:57:32;;;;;;;24.38;12.98;;;11.60;99.90;;;;;;5108549;28;20404;-75
2022/10/22 04:59:58;;;;;;;25.05;12.68;;;11.60;99.90;;;;;;5107142;28;20419;-75
2022/10/22 05:02:23;;;;;;;26.50;12.80;;;11.70;99.90;;;;;;5108329;28;20519;-75
2022/10/22 05:04:49;;;;;;;24.23;13.40;;;11.60;99.90;;;;;;5110232;28;20902;-75
2022/10/22 05:07:14;;;;;;;27.97;13.60;;;11.60;99.90;;;;;;5093988;28;20487;-75
2022/10/22 05:09:40;;;;;;;26.13;13.43;;;11.70;99.90;;;;;;5123659;27;20400;-75
2022/10/22 05:12:06;;;;;;;26.00;13.30;;;11.70;99.90;;;;;;5111356;28;20400;-75
2022/10/22 05:14:31;;;;;;;27.38;13.48;;;11.70;99.90;;;;;;5112333;28;20403;-75
2022/10/22 05:16:57;;;;;;;23.93;13.67;;;11.70;99.90;;;;;;5124364;27;20910;-75
2022/10/22 05:19:28;;;;;;;24.45;13.35;;;11.70;99.90;;;;;;5098636;28;20388;-75
2022/10/22 05:21:58;;;;;;;26.95;13.68;;;11.70;99.90;;;;;;5110369;28;20459;-74
2022/10/22 05:24:25;;;;;;;25.35;14.20;;;11.70;99.90;;;;;;5106291;28;20445;-75
2022/10/22 05:26:52;;;;;;;28.67;14.05;;;11.70;99.90;;;;;;5106870;28;20437;-75
2022/10/22 05:29:18;;;;;;;31.15;14.27;;;11.70;99.90;;;;;;5111601;28;20400;-75
2022/10/22 05:31:44;;;;;;;28.30;13.23;;;11.80;99.90;;;;;;5110918;28;21253;-75
2022/10/22 05:34:10;;;;;;;23.67;12.68;;;11.70;99.90;;;;;;5111550;28;20396;-75
2022/10/22 05:36:36;;;;;;;28.08;13.40;;;11.70;99.90;;;;;;5109785;28;20473;-75
2022/10/22 05:39:02;;;;;;;24.17;13.43;;;11.70;99.90;;;;;;5111629;28;20436;-75
2022/10/22 05:41:28;;;;;;;24.70;13.15;;;11.70;99.90;;;;;;5111775;28;20477;-75
2022/10/22 05:43:58;;;;;;;26.13;13.32;;;11.70;99.90;;;;;;5111856;28;20397;-75
2022/10/22 05:46:26;;;;;;;26.85;13.15;;;11.70;99.90;;;;;;5110275;28;20909;-75
2022/10/22 05:48:58;;;;;;;25.23;13.25;;;11.70;99.90;;;;;;5112051;27;20407;-74
2022/10/22 05:51:25;;;;;;;27.25;13.48;;;11.70;99.90;;;;;;5111047;28;20480;-75
2022/10/22 05:53:56;;;;;;;27.98;13.48;;;11.70;99.90;;;;;;5110697;28;20404;-75
2022/10/22 05:56:22;;;;;;;28.40;14.18;;;11.70;99.90;;;;;;5111506;28;20400;-75
2022/10/22 05:58:48;;;;;;;24.55;12.48;;;11.60;99.90;;;;;;5110538;28;20600;-75
2022/10/22 06:01:17;;;;;;;26.67;13.98;;;11.70;99.90;;;;;;5110415;28;20503;-74
2022/10/22 06:03:43;;;;;;;24.42;13.18;;;11.60;99.90;;;;;;5109936;28;20413;-75
2022/10/22 06:06:25;;;;;;;25.33;13.48;;;11.60;99.90;;;;;;5111207;28;21051;-75
2022/10/22 06:08:52;;;;;;;26.80;13.10;;;11.60;99.90;;;;;;5104811;28;20553;-74
2022/10/22 06:11:19;;;;;;;26.33;14.23;;;11.60;99.90;;;;;;5111297;28;20446;-75
2022/10/22 06:13:46;;;;;;;28.20;13.90;;;11.60;99.90;;;;;;5092695;28;20400;-75
2022/10/22 06:16:11;;;;;;;25.05;13.68;;;11.60;99.90;;;;;;5104151;28;20407;-74
2022/10/22 06:18:37;;;;;;;29.88;13.85;;;11.50;99.90;;;;;;5110746;28;20396;-75
2022/10/22 06:21:04;;;;;;;33.13;13.77;;;11.50;99.90;;;;;;5108425;28;20949;-75
2022/10/22 06:23:30;;;;;;;26.33;13.13;;;11.50;99.90;;;;;;5115571;27;20410;-75
2022/10/22 06:25:57;;;;;;;24.40;12.83;;;11.50;99.90;;;;;;5110184;28;20404;-75
2022/10/22 06:28:23;;;;;;;29.27;13.23;;;11.50;99.90;;;;;;5109996;28;20862;-75
2022/10/22 06:30:49;;;;;;;29.95;13.95;;;11.50;99.90;;;;;;5108454;27;20408;-74
2022/10/22 06:33:14;;;;;;;28.50;12.52;;;11.50;99.90;;;;;;5109781;28;20392;-74
2022/10/22 06:35:40;;;;;;;29.83;13.47;;;11.50;99.90;;;;;;5108351;28;20780;-75
2022/10/22 06:38:06;;;;;;;25.73;13.38;;;11.50;99.90;;;;;;5109350;28;20574;-75
2022/10/22 06:40:32;;;;;;;29.57;14.53;;;11.50;99.90;;;;;;5108100;28;20416;-75
2022/10/22 06:43:00;;;;;;;30.55;13.98;;;11.60;99.90;;;;;;5109470;27;20710;-74
2022/10/22 06:45:26;;;;;;;29.85;14.65;;;11.60;99.90;;;;;;5108037;28;20758;-75
2022/10/22 06:47:52;;;;;;;27.35;14.00;;;11.70;99.90;;;;;;5107495;28;20397;-75
2022/10/22 06:50:18;;;;;;;31.38;14.02;;;11.70;99.90;;;;;;5091966;28;20404;-74
2022/10/22 06:52:44;;;;;;;27.52;14.10;;;11.70;99.90;;;;;;5110317;28;20400;-75
2022/10/22 06:55:09;;;;;;;28.90;13.97;;;11.80;99.90;;;;;;5110281;28;20403;-75
2022/10/22 06:57:35;;;;;;;25.88;13.70;;;11.80;99.90;;;;;;5108660;28;20492;-75
2022/10/22 07:00:01;;;;;;;26.70;13.83;;;11.90;99.90;;;;;;5110295;28;20396;-75
2022/10/22 07:02:26;;;;;;;26.75;13.68;;;11.90;99.90;;;;;;5108414;28;20439;-75
2022/10/22 07:04:52;;;;;;;29.40;14.10;;;11.90;99.90;;;;;;5107072;28;20423;-75
2022/10/22 07:07:17;;;;;;;25.42;13.45;;;12.00;99.90;;;;;;5098482;27;20441;-75
2022/10/22 07:09:46;;;;;;;22.63;13.10;;;12.10;99.90;;;;;;5097843;28;20423;-75
2022/10/22 07:12:12;;;;;;;26.40;13.15;;;12.10;99.90;;;;;;5074240;28;20417;-75
2022/10/22 07:14:38;;;;;;;26.05;13.05;;;12.10;99.90;;;;;;5105091;27;20463;-76
2022/10/22 07:17:03;;;;;;;23.70;12.80;;;12.20;99.90;;;;;;5093448;27;21223;-75
2022/10/22 07:19:30;;;;;;;26.50;12.97;;;12.20;99.90;;;;;;5100764;28;20809;-75
2022/10/22 07:21:56;;;;;;;24.10;12.32;;;12.30;99.90;;;;;;5098669;27;20839;-75
2022/10/22 07:24:22;;;;;;;23.23;12.18;;;12.30;99.90;;;;;;5094996;28;20413;-75
2022/10/22 07:26:48;;;;;;;25.33;13.15;;;12.40;99.90;;;;;;5091340;28;20402;-75
2022/10/22 07:29:14;;;;;;;23.93;12.80;;;12.40;99.90;;;;;;5095716;28;20834;-75
2022/10/22 07:31:41;;;;;;;23.60;12.68;;;12.50;99.90;;;;;;5100140;27;20483;-75
2022/10/22 07:34:06;;;;;;;25.55;12.25;;;12.50;99.90;;;;;;5093692;28;20462;-75
2022/10/22 07:36:32;;;;;;;21.67;11.80;;;12.60;99.90;;;;;;5092106;27;20414;-75
2022/10/22 07:38:59;;;;;;;22.77;12.10;;;12.70;99.90;;;;;;5093327;27;20487;-76
2022/10/22 07:41:26;;;;;;;24.50;12.13;;;12.80;99.90;;;;;;5090802;27;20453;-75
2022/10/22 07:43:52;;;;;;;24.05;12.25;;;12.80;99.90;;;;;;5096776;27;20398;-75
2022/10/22 07:46:18;;;;;;;21.73;11.43;;;12.90;99.90;;;;;;5101127;28;20400;-75
2022/10/22 07:48:44;;;;;;;23.50;11.87;;;13.00;99.90;;;;;;5097764;28;20405;-75
2022/10/22 07:51:09;;;;;;;21.67;10.77;;;13.10;99.90;;;;;;5102772;27;20520;-75
2022/10/22 07:53:36;;;;;;;19.93;10.90;;;13.10;99.90;;;;;;5109030;28;20830;-75
2022/10/22 07:56:01;;;;;;;21.80;10.77;;;13.20;99.90;;;;;;5109246;28;20401;-77
2022/10/22 07:58:27;;;;;;;20.58;10.80;;;13.30;99.90;;;;;;5091077;28;20404;-76
2022/10/22 08:00:59;;;;;;;18.77;9.60;;;13.30;99.90;;;;;;5109403;28;20424;-75
2022/10/22 08:03:26;;;;;;;18.97;10.70;;;13.30;99.90;;;;;;5105714;28;20429;-76
2022/10/22 08:05:52;;;;;;;19.52;10.00;;;13.40;99.90;;;;;;5104336;28;20866;-76
2022/10/22 08:08:18;;;;;;;20.90;9.83;;;13.40;99.90;;;;;;5108903;28;20428;-76
2022/10/22 08:10:45;;;;;;;19.63;9.43;;;13.40;99.90;;;;;;5090401;28;21501;-76
2022/10/22 08:13:11;;;;;;;17.20;9.07;;;13.50;99.90;;;;;;5108195;28;21088;-76
2022/10/22 08:15:36;;;;;;;17.73;9.20;;;13.50;99.90;;;;;;5108310;28;20415;-76
2022/10/22 08:18:02;;;;;;;18.58;9.13;;;13.50;99.90;;;;;;5108200;27;20886;-76
2022/10/22 08:20:28;;;;;;;21.23;9.63;;;13.50;99.90;;;;;;5108407;28;20949;-76
2022/10/22 08:22:54;;;;;;;20.45;9.05;;;13.60;99.90;;;;;;5107575;28;20419;-75
2022/10/22 08:25:19;;;;;;;20.00;9.10;;;13.60;99.90;;;;;;5108782;28;20404;-75
2022/10/22 08:27:45;;;;;;;15.15;8.43;;;13.60;99.90;;;;;;5108386;28;20403;-76
2022/10/22 08:30:11;;;;;;;16.63;8.93;;;13.60;99.90;;;;;;5089767;28;20404;-76
2022/10/22 08:32:37;;;;;;;16.40;8.75;;;13.70;99.90;;;;;;5108644;28;20400;-76
2022/10/22 08:35:03;;;;;;;17.17;9.00;;;13.70;99.90;;;;;;5108058;28;20404;-76
2022/10/22 08:37:29;;;;;;;14.50;7.95;;;13.80;99.90;;;;;;5090041;28;20776;-75
2022/10/22 08:39:54;;;;;;;14.75;7.78;;;13.80;99.90;;;;;;5108120;28;20886;-76
2022/10/22 08:42:42;;;;;;;16.33;7.80;;;13.80;99.90;;;;;;5106673;28;20425;-75
2022/10/22 08:45:25;;;;;;;16.00;8.13;;;13.90;99.90;;;;;;5105694;28;20832;-76
2022/10/22 08:48:25;;;;;;;14.05;7.43;;;13.90;99.90;;;;;;5095564;28;20435;-76
2022/10/22 08:50:54;;;;;;;15.07;7.93;;;13.90;99.90;;;;;;5106316;28;20404;-75
2022/10/22 08:53:28;;;;;;;13.03;7.60;;;13.90;99.90;;;;;;5107802;28;20925;-76
2022/10/22 08:55:55;;;;;;;16.92;7.80;;;14.00;99.90;;;;;;5106294;28;20469;-76
2022/10/22 08:58:51;;;;;;;15.15;7.10;;;14.00;99.90;;;;;;5102709;28;20481;-76
2022/10/22 09:01:40;;;;;;;14.50;7.17;;;14.00;99.90;;;;;;5098724;28;20439;-76
2022/10/22 09:04:27;;;;;;;15.70;7.15;;;14.20;99.90;;;;;;5107189;28;20404;-76
2022/10/22 09:06:56;;;;;;;17.83;7.83;;;14.30;99.90;;;;;;5106366;28;20420;-76
2022/10/22 09:09:28;;;;;;;16.08;6.60;;;14.50;99.90;;;;;;5093301;28;20404;-75
2022/10/22 09:11:57;;;;;;;11.68;5.45;;;15.40;99.90;;;;;;5107038;28;20457;-76
2022/10/22 09:14:25;;;;;;;10.65;4.80;;;16.50;99.90;;;;;;5106861;28;20404;-76
2022/10/22 09:17:19;;;;;;;11.70;4.68;;;17.30;99.90;;;;;;5099026;28;20962;-76
2022/10/22 09:19:48;;;;;;;10.43;3.97;;;18.00;99.90;;;;;;5097131;28;20419;-76
2022/10/22 09:22:19;;;;;;;12.60;4.50;;;18.50;99.90;;;;;;5105622;28;20489;-75
2022/10/22 09:24:47;;;;;;;8.43;3.72;;;18.80;99.90;;;;;;5100875;28;20428;-77
2022/10/22 09:27:24;;;;;;;8.63;3.60;;;19.10;99.90;;;;;;5098433;28;20442;-77
2022/10/22 09:29:50;;;;;;;11.13;3.60;;;19.50;99.90;;;;;;5105619;28;20433;-76
2022/10/22 09:32:16;;;;;;;9.68;3.53;;;19.70;99.90;;;;;;5108309;28;20400;-76
2022/10/22 09:34:48;;;;;;;12.15;3.55;;;19.80;99.90;;;;;;5079637;28;20535;-76
2022/10/22 09:37:16;;;;;;;9.25;3.60;;;20.00;99.90;;;;;;5093870;28;20405;-76
2022/10/22 09:39:51;;;;;;;8.63;3.38;;;20.10;99.90;;;;;;5106032;28;21002;-76
2022/10/22 09:42:19;;;;;;;10.02;3.40;;;20.40;99.90;;;;;;5106582;28;20441;-76
2022/10/22 09:44:52;;;;;;;10.47;2.93;;;20.70;99.90;;;;;;5107452;28;21175;-76
2022/10/22 09:47:38;;;;;;;10.57;3.00;;;21.00;99.90;;;;;;5088704;28;20538;-76
2022/10/22 09:50:21;;;;;;;7.63;2.75;;;21.50;99.90;;;;;;5107510;28;20425;-77
2022/10/22 09:53:10;;;;;;;12.15;2.50;;;21.80;99.90;;;;;;5108429;28;20408;-76
2022/10/22 09:55:38;;;;;;;9.25;2.80;;;21.90;99.90;;;;;;5110662;28;20519;-76
2022/10/22 09:58:04;;;;;;;11.85;3.10;;;21.70;99.90;;;;;;5092684;28;20443;-77
2022/10/22 10:00:30;;;;;;;10.37;2.77;;;21.60;99.90;;;;;;5109534;28;20469;-75
2022/10/22 10:02:57;;;;;;;7.72;2.30;;;21.30;99.90;;;;;;5111034;28;20952;-77
2022/10/22 10:05:34;;;;;;;9.13;2.50;;;21.00;99.90;;;;;;5108068;28;20406;-77
2022/10/22 10:08:14;;;;;;;10.02;2.40;;;20.70;99.90;;;;;;5091722;28;20440;-78
2022/10/22 10:10:55;;;;;;;10.63;2.40;;;20.30;99.90;;;;;;5109574;28;20447;-77
2022/10/22 10:13:23;;;;;;;12.57;3.30;;;20.00;99.90;;;;;;5102259;28;20567;-75
2022/10/22 10:15:57;;;;;;;10.20;2.50;;;19.70;99.90;;;;;;5110630;28;20499;-76
2022/10/22 10:18:40;;;;;;;9.60;2.70;;;19.80;99.90;;;;;;5110770;28;20413;-78
2022/10/22 10:21:05;;;;;;;10.47;2.70;;;20.00;99.90;;;;;;5101890;28;20428;-72
2022/10/22 10:23:40;;;;;;;8.32;2.63;;;20.00;99.90;;;;;;5107708;27;20481;-74
2022/10/22 10:26:11;;;;;;;10.63;2.92;;;19.70;99.90;;;;;;5103906;28;20428;-71
2022/10/22 10:28:44;;;;;;;8.88;2.47;;;19.40;99.90;;;;;;5101411;28;20418;-73
2022/10/22 10:31:27;;;;;;;9.88;2.70;;;19.00;99.90;;;;;;5099610;28;20444;-73
2022/10/22 10:34:26;;;;;;;9.95;2.72;;;18.70;99.90;;;;;;5106870;28;20905;-74
2022/10/22 10:36:52;;;;;;;10.68;3.60;;;18.50;99.90;;;;;;5117728;27;20420;-77
2022/10/22 10:39:28;;;;;;;9.07;2.60;;;18.30;99.90;;;;;;5091411;28;20410;-75
2022/10/22 10:42:29;;;;;;;11.50;2.70;;;18.10;99.90;;;;;;5090426;28;20849;-75
2022/10/22 10:45:32;;;;;;;10.48;2.58;;;18.00;99.90;;;;;;5092539;28;20414;-75
2022/10/22 10:48:21;;;;;;;11.85;2.92;;;17.80;99.90;;;;;;5094463;28;20793;-76
2022/10/22 10:50:56;;;;;;;11.27;3.30;;;17.60;99.90;;;;;;5099269;28;20554;-76
2022/10/22 10:53:52;;;;;;;12.57;2.70;;;17.40;99.90;;;;;;5109851;28;20762;-76
2022/10/22 10:56:37;;;;;;;8.07;2.60;;;17.30;99.90;;;;;;5102161;27;20416;-76
2022/10/22 10:59:39;;;;;;;9.02;2.75;;;17.30;99.90;;;;;;5097082;27;20418;-75
2022/10/22 11:02:32;;;;;;;8.43;2.72;;;17.20;99.90;;;;;;5097207;27;20430;-75
2022/10/22 11:05:36;;;;;;;7.38;2.85;;;17.20;99.90;;;;;;5091334;28;20424;-74
2022/10/22 11:08:17;;;;;;;9.50;3.50;;;17.20;99.90;;;;;;5076783;28;20408;-75
2022/10/22 11:10:45;;;;;;;9.88;3.08;;;17.20;99.90;;;;;;5094535;27;22371;-75
2022/10/22 11:13:20;;;;;;;10.63;3.67;;;17.10;99.90;;;;;;5098069;28;20412;-74
2022/10/22 11:16:23;;;;;;;9.35;3.55;;;17.10;99.90;;;;;;5109204;28;20913;-75
2022/10/22 11:19:10;;;;;;;8.53;3.60;;;17.20;99.90;;;;;;5084281;28;20489;-74
2022/10/22 11:21:45;;;;;;;10.45;3.92;;;17.20;99.90;;;;;;5100888;28;20424;-74
2022/10/22 11:24:37;;;;;;;10.43;3.42;;;17.10;99.90;;;;;;5106842;28;20435;-74
2022/10/22 11:27:08;;;;;;;11.43;3.95;;;17.00;99.90;;;;;;5089569;28;20917;-75
2022/10/22 11:29:39;;;;;;;11.48;4.18;;;17.00;99.90;;;;;;5105711;28;20416;-75
2022/10/22 11:32:13;;;;;;;10.10;3.50;;;16.90;99.90;;;;;;5106759;28;20407;-72
2022/10/22 11:34:47;;;;;;;10.90;3.67;;;16.90;99.90;;;;;;5109366;28;20897;-72
2022/10/22 11:37:14;;;;;;;10.90;3.42;;;16.90;99.90;;;;;;5104985;28;20969;-72
2022/10/22 11:39:47;;;;;;;9.80;3.95;;;16.90;99.90;;;;;;5106055;28;20440;-71
2022/10/22 11:42:45;;;;;;;11.50;3.90;;;16.90;99.90;;;;;;5102419;28;20428;-72
2022/10/22 11:45:14;;;;;;;11.52;4.20;;;16.90;99.90;;;;;;5099218;28;20474;-72
2022/10/22 11:48:06;;;;;;;12.10;4.13;;;16.90;99.90;;;;;;5108093;28;20412;-71
2022/10/22 11:50:53;;;;;;;10.45;4.38;;;16.80;99.90;;;;;;5105693;28;20951;-70
2022/10/22 11:53:34;;;;;;;10.05;4.88;;;16.80;99.90;;;;;;5106504;28;20431;-72
2022/10/22 11:56:06;;;;;;;11.37;4.70;;;16.60;99.90;;;;;;5109090;28;20483;-72
2022/10/22 11:58:38;;;;;;;13.40;4.75;;;16.60;99.90;;;;;;5083692;28;20545;-72
2022/10/22 12:01:06;;;;;;;10.77;4.63;;;16.50;99.90;;;;;;5105509;28;20424;-72
2022/10/22 12:03:32;;;;;;;10.38;4.63;;;16.40;99.90;;;;;;5097484;28;20413;-72
2022/10/22 12:06:03;;;;;;;11.13;4.80;;;16.40;99.90;;;;;;5108969;28;21036;-72
2022/10/22 12:08:30;;;;;;;12.85;4.85;;;16.40;99.90;;;;;;5109841;27;20404;-72
2022/10/22 12:11:04;;;;;;;10.50;4.78;;;16.60;99.90;;;;;;5113994;27;20859;-72
2022/10/22 12:13:49;;;;;;;12.82;4.80;;;16.80;99.90;;;;;;5110757;27;20419;-72
2022/10/22 12:16:15;;;;;;;9.85;4.35;;;16.90;99.90;;;;;;5116507;27;20411;-72
2022/10/22 12:18:43;;;;;;;12.77;4.53;;;16.80;99.90;;;;;;5107802;28;20397;-72
2022/10/22 12:21:13;;;;;;;10.00;4.47;;;16.80;99.90;;;;;;5096304;28;20504;-72
2022/10/22 12:23:39;;;;;;;10.63;4.32;;;16.80;99.90;;;;;;5118831;27;20526;-72
2022/10/22 12:26:05;;;;;;;10.37;4.40;;;16.90;99.90;;;;;;5107470;28;20408;-72
2022/10/22 12:28:39;;;;;;;10.10;4.30;;;16.90;99.90;;;;;;5103664;28;20403;-73
2022/10/22 12:31:13;;;;;;;13.07;4.63;;;16.80;99.90;;;;;;5105431;28;20416;-73
2022/10/22 12:33:38;;;;;;;12.13;5.05;;;16.80;99.90;;;;;;5104531;28;20407;-71
2022/10/22 12:36:05;;;;;;;11.70;4.50;;;16.70;99.90;;;;;;5109068;28;20401;-73
2022/10/22 12:38:30;;;;;;;11.60;5.00;;;16.70;99.90;;;;;;5101323;28;20511;-73
2022/10/22 12:40:56;;;;;;;9.90;4.78;;;16.70;99.90;;;;;;5106725;28;20407;-73
2022/10/22 12:43:28;;;;;;;11.35;5.20;;;16.60;99.90;;;;;;5106786;28;20491;-73
2022/10/22 12:45:56;;;;;;;8.73;4.90;;;16.70;99.90;;;;;;5108886;28;20416;-74
2022/10/22 12:48:33;;;;;;;10.25;4.85;;;16.80;99.90;;;;;;5100109;28;20531;-73
2022/10/22 12:51:00;;;;;;;10.18;4.47;;;16.90;99.90;;;;;;5106137;28;20473;-73